Pagina principale
METAR-TAF:

METAR-TAF

Aeroporti :

Fiume, Croazia

latitudine: 45-13N, longitudine: 014-35E, altezza: 85 m

Osservazione

Il bollettino è stato emesso 33 minuti fa, alle 16:00 UTC
Vento 3 kt da ovest
Temperature 29°C
Umidità 48%
Pressione 1016 hPa
Visibilità 10 km o più
nessuna nube inferiore a 1500 m e nessun cumulonembo

METAR: LDRI 191600Z 27003KT CAVOK 29/17 Q1016

Ora: 18:33 (16:33 UTC)

Previsione

Il bollettino è stato emesso 5 ore e 8 minuti fa, alle 11:25 UTC
Previsione valida dal 19 alle 12 UTC al 20 alle 12 UTC
Vento 6 kt da nord-ovest
Visibilità 10 km o più
nessuna nube inferiore a 1500 m e nessun cumulonembo
Evoluzione graduale
dal 19 alle 16 UTC al 19 alle 18 UTC
Vento 2 kt da direzioni variabili
Evoluzione graduale
dal 20 alle 09 UTC al 20 alle 11 UTC
Vento 6 kt da nord-ovest

TAF: LDRI 191125Z 1912/2012 32006KT CAVOK TX30/1913Z TN19/2004Z BECMG 1916/1918 VRB02KT BECMG 2009/2011 32006KT

Osservazioni e previsioni meteorologiche di più di 4000 aeroporti (messaggi METAR e TAF).

Le stazioni disponibili sono rappresentate dai dischi gialli e rossi sulla carta.

Puntare il mouse per vedere il nome della stazione.

Clicca sopra per visualizzare le osservazioni e previsioni meteorologiche.

Per cambiare la mappa : fare clic sui pulsanti verdi con una croce nera per ingrandire, il pulsante verde con un trattino per diminuire, o sulla freccia verde per le mappe adiacenti.


METAR-TAF: